Time;durP1;ratioP1;P1;durP2;ratioP2;P2;SDS_P1;SDS_P2;PMS_P1;PMS_P2;Temp;Humidity;BMP_temperature;BMP_pressure;BME280_temperature;BME280_humidity;BME280_pressure;Samples;Min_cycle;Max_cycle;Signal;HPM_P1;HPM_P2
2020/12/07 00:00:56;;;;;;;9.75;7.93;;;;;;;;;;5088836;28;20216;-44
2020/12/07 00:03:22;;;;;;;8.98;7.78;;;;;;;;;;5081175;28;20194;-43
2020/12/07 00:05:48;;;;;;;8.50;7.60;;;;;;;;;;5077801;28;20178;-44
2020/12/07 00:08:14;;;;;;;9.18;8.10;;;;;;;;;;5095801;28;20506;-44
2020/12/07 00:10:40;;;;;;;9.35;8.10;;;;;;;;;;5097028;28;20321;-44
2020/12/07 00:13:06;;;;;;;9.80;8.02;;;;;;;;;;5092673;28;20201;-44
2020/12/07 00:15:32;;;;;;;8.57;7.68;;;;;;;;;;5095918;28;20196;-44
2020/12/07 00:18:01;;;;;;;8.35;7.55;;;;;;;;;;5081950;28;20265;-44
2020/12/07 00:20:27;;;;;;;9.25;8.35;;;;;;;;;;5084788;28;20710;-44
2020/12/07 00:22:52;;;;;;;9.55;8.55;;;;;;;;;;5086552;28;20581;-44
2020/12/07 00:25:19;;;;;;;8.50;7.65;;;;;;;;;;5094592;28;20223;-44
2020/12/07 00:27:45;;;;;;;10.15;8.02;;;;;;;;;;5084218;28;20593;-44
2020/12/07 00:30:11;;;;;;;8.15;7.35;;;;;;;;;;5077937;28;20258;-44
2020/12/07 00:32:37;;;;;;;9.40;8.25;;;;;;;;;;5086391;28;20553;-44
2020/12/07 00:35:03;;;;;;;8.52;7.32;;;;;;;;;;5092875;28;20264;-44
2020/12/07 00:37:29;;;;;;;8.40;7.53;;;;;;;;;;5092081;28;20194;-44
2020/12/07 00:39:55;;;;;;;8.70;7.60;;;;;;;;;;5077339;28;20450;-44
2020/12/07 00:42:21;;;;;;;9.07;7.93;;;;;;;;;;5095559;28;20213;-44
2020/12/07 00:44:47;;;;;;;10.15;7.97;;;;;;;;;;5084982;28;20211;-44
2020/12/07 00:47:13;;;;;;;8.38;7.45;;;;;;;;;;5095484;28;20709;-44
2020/12/07 00:49:40;;;;;;;8.18;7.35;;;;;;;;;;5086944;28;20240;-44
2020/12/07 00:52:06;;;;;;;7.88;7.07;;;;;;;;;;5077029;28;20182;-44
2020/12/07 00:54:32;;;;;;;8.23;7.18;;;;;;;;;;5076359;28;20178;-43
2020/12/07 00:56:59;;;;;;;7.20;6.50;;;;;;;;;;5080629;28;20198;-44
2020/12/07 00:59:26;;;;;;;8.20;7.22;;;;;;;;;;5095722;28;20227;-44
2020/12/07 01:01:53;;;;;;;7.18;6.53;;;;;;;;;;5080948;28;20225;-44
2020/12/07 01:04:19;;;;;;;8.40;7.50;;;;;;;;;;5095009;28;20185;-44
2020/12/07 01:06:45;;;;;;;8.27;7.38;;;;;;;;;;5096341;28;20177;-44
2020/12/07 01:09:19;;;;;;;8.18;7.32;;;;;;;;;;5089929;28;20174;-44
2020/12/07 01:11:45;;;;;;;7.88;7.07;;;;;;;;;;5083808;28;20200;-44
2020/12/07 01:14:12;;;;;;;7.68;6.95;;;;;;;;;;5076184;28;20584;-44
2020/12/07 01:16:38;;;;;;;8.85;7.57;;;;;;;;;;5077262;28;20197;-44
2020/12/07 01:19:08;;;;;;;7.68;6.63;;;;;;;;;;5083679;28;20177;-45
2020/12/07 01:21:34;;;;;;;8.55;7.57;;;;;;;;;;5094769;28;20808;-44
2020/12/07 01:24:00;;;;;;;7.45;6.65;;;;;;;;;;5083839;28;20198;-44
2020/12/07 01:26:27;;;;;;;7.32;6.45;;;;;;;;;;5076411;28;20236;-44
2020/12/07 01:28:56;;;;;;;8.20;7.18;;;;;;;;;;5082134;28;20174;-44
2020/12/07 01:31:22;;;;;;;7.53;6.20;;;;;;;;;;5096636;28;20201;-44
2020/12/07 01:33:48;;;;;;;7.03;6.30;;;;;;;;;;5094403;28;20280;-44
2020/12/07 01:36:14;;;;;;;6.82;6.13;;;;;;;;;;5095471;28;20192;-44
2020/12/07 01:38:40;;;;;;;6.93;6.22;;;;;;;;;;5084782;28;20216;-44
2020/12/07 01:41:06;;;;;;;7.00;6.30;;;;;;;;;;5077933;28;20218;-44
2020/12/07 01:43:32;;;;;;;7.05;6.10;;;;;;;;;;5076357;28;20198;-44
2020/12/07 01:45:59;;;;;;;7.60;6.03;;;;;;;;;;5076546;28;20198;-44
2020/12/07 01:48:26;;;;;;;8.70;6.63;;;;;;;;;;5092729;28;20173;-44
2020/12/07 01:50:52;;;;;;;7.78;6.10;;;;;;;;;;5096325;28;20173;-44
2020/12/07 01:53:19;;;;;;;7.25;6.00;;;;;;;;;;5088632;28;20257;-44
2020/12/07 01:55:45;;;;;;;6.90;6.20;;;;;;;;;;5090544;28;20182;-44
2020/12/07 01:58:11;;;;;;;6.03;5.43;;;;;;;;;;5083450;28;20196;-44
2020/12/07 02:00:38;;;;;;;6.20;5.53;;;;;;;;;;5094010;28;20236;-44
2020/12/07 02:03:04;;;;;;;6.30;5.70;;;;;;;;;;5088565;28;20210;-44
2020/12/07 02:05:31;;;;;;;6.75;6.10;;;;;;;;;;5086109;28;20186;-44
2020/12/07 02:08:16;;;;;;;6.18;5.57;;;;;;;;;;5086728;28;20204;-44
2020/12/07 02:10:43;;;;;;;5.93;5.32;;;;;;;;;;5086420;28;20724;-44
2020/12/07 02:13:09;;;;;;;6.10;5.50;;;;;;;;;;5082792;28;20178;-44
2020/12/07 02:15:35;;;;;;;6.47;5.75;;;;;;;;;;5079275;28;20182;-44
2020/12/07 02:18:01;;;;;;;5.82;5.32;;;;;;;;;;5085430;28;20202;-45
2020/12/07 02:20:27;;;;;;;5.63;5.13;;;;;;;;;;5093302;28;20209;-44
2020/12/07 02:22:53;;;;;;;6.05;5.45;;;;;;;;;;5080842;28;20240;-44
2020/12/07 02:25:20;;;;;;;5.78;5.18;;;;;;;;;;5094582;28;20228;-44
2020/12/07 02:27:47;;;;;;;5.80;5.20;;;;;;;;;;5094920;28;20177;-44
2020/12/07 02:30:15;;;;;;;5.70;5.20;;;;;;;;;;5095694;28;20181;-44
2020/12/07 02:32:41;;;;;;;6.95;5.45;;;;;;;;;;5087742;28;20616;-44
2020/12/07 02:35:07;;;;;;;5.65;4.90;;;;;;;;;;5077467;28;20201;-45
2020/12/07 02:37:34;;;;;;;6.40;5.80;;;;;;;;;;5106396;28;20200;-44
2020/12/07 02:40:00;;;;;;;5.68;5.18;;;;;;;;;;5094645;28;20242;-44
2020/12/07 02:42:26;;;;;;;5.00;4.55;;;;;;;;;;5089624;28;20465;-44
2020/12/07 02:44:52;;;;;;;5.22;4.72;;;;;;;;;;5080831;28;20285;-44
2020/12/07 02:47:18;;;;;;;5.20;4.70;;;;;;;;;;5092474;28;20596;-44
2020/12/07 02:49:44;;;;;;;5.30;4.80;;;;;;;;;;5091977;28;20239;-44
2020/12/07 02:52:10;;;;;;;5.70;5.13;;;;;;;;;;5090144;28;20201;-44
2020/12/07 02:54:36;;;;;;;4.90;4.40;;;;;;;;;;5091779;28;20181;-44
2020/12/07 02:57:02;;;;;;;4.88;4.47;;;;;;;;;;5093324;28;20228;-44
2020/12/07 02:59:28;;;;;;;5.03;4.53;;;;;;;;;;5083100;28;20186;-44
2020/12/07 03:01:54;;;;;;;5.22;4.43;;;;;;;;;;5093445;28;20224;-44
2020/12/07 03:04:20;;;;;;;4.80;4.30;;;;;;;;;;5081653;28;20188;-44
2020/12/07 03:06:45;;;;;;;5.47;4.60;;;;;;;;;;5081254;28;20431;-44
2020/12/07 03:09:12;;;;;;;4.85;4.40;;;;;;;;;;5084128;28;20181;-43
2020/12/07 03:11:37;;;;;;;5.65;5.03;;;;;;;;;;5093565;28;20219;-44
2020/12/07 03:14:04;;;;;;;5.28;4.78;;;;;;;;;;5088922;28;20380;-44
2020/12/07 03:16:30;;;;;;;4.80;4.35;;;;;;;;;;5085797;28;20206;-44
2020/12/07 03:18:55;;;;;;;5.35;4.60;;;;;;;;;;5088679;28;20205;-44
2020/12/07 03:21:22;;;;;;;4.65;4.20;;;;;;;;;;5079059;28;20185;-44
2020/12/07 03:23:48;;;;;;;5.68;4.60;;;;;;;;;;5079344;28;20210;-44
2020/12/07 03:26:14;;;;;;;4.50;4.10;;;;;;;;;;5083970;28;20186;-44
2020/12/07 03:28:39;;;;;;;4.60;4.20;;;;;;;;;;5074896;28;20182;-44
2020/12/07 03:31:05;;;;;;;5.35;4.55;;;;;;;;;;5082639;28;20204;-44
2020/12/07 03:33:31;;;;;;;4.63;4.22;;;;;;;;;;5093633;28;20470;-44
2020/12/07 03:35:57;;;;;;;4.35;3.95;;;;;;;;;;5087283;28;20257;-44
2020/12/07 03:38:23;;;;;;;4.55;4.15;;;;;;;;;;5081679;28;20182;-44
2020/12/07 03:40:49;;;;;;;4.43;4.03;;;;;;;;;;5094326;28;20189;-44
2020/12/07 03:43:15;;;;;;;4.50;4.00;;;;;;;;;;5077482;28;20352;-44
2020/12/07 03:45:43;;;;;;;4.25;3.90;;;;;;;;;;5078432;28;20178;-44
2020/12/07 03:48:09;;;;;;;4.60;4.05;;;;;;;;;;5086039;28;20175;-44
2020/12/07 03:50:35;;;;;;;4.90;4.45;;;;;;;;;;5083765;28;20205;-43
2020/12/07 03:53:01;;;;;;;4.65;4.25;;;;;;;;;;5097168;28;20186;-44
2020/12/07 03:55:27;;;;;;;4.40;4.00;;;;;;;;;;5101126;28;20225;-44
2020/12/07 03:57:53;;;;;;;4.38;3.97;;;;;;;;;;5078431;28;20489;-44
2020/12/07 04:00:19;;;;;;;4.55;4.15;;;;;;;;;;5078523;28;20182;-44
2020/12/07 04:02:45;;;;;;;3.97;3.67;;;;;;;;;;5088762;28;20596;-44
2020/12/07 04:05:21;;;;;;;4.55;4.15;;;;;;;;;;5084312;28;20173;-44
2020/12/07 04:07:48;;;;;;;3.95;3.65;;;;;;;;;;5095208;28;20181;-44
2020/12/07 04:10:14;;;;;;;4.32;3.92;;;;;;;;;;5092017;28;20197;-44
2020/12/07 04:12:40;;;;;;;4.03;3.72;;;;;;;;;;5096473;28;20476;-44
2020/12/07 04:15:06;;;;;;;4.05;3.70;;;;;;;;;;5094010;28;20185;-44
2020/12/07 04:17:32;;;;;;;4.13;3.75;;;;;;;;;;5077920;28;20197;-44
2020/12/07 04:19:58;;;;;;;4.22;3.80;;;;;;;;;;5078317;28;20187;-44
2020/12/07 04:22:24;;;;;;;4.72;4.15;;;;;;;;;;5090443;28;20198;-44
2020/12/07 04:24:50;;;;;;;3.80;3.50;;;;;;;;;;5091533;28;20260;-44
2020/12/07 04:27:16;;;;;;;4.40;4.00;;;;;;;;;;5080027;28;20193;-44
2020/12/07 04:29:42;;;;;;;4.35;3.95;;;;;;;;;;5077584;28;20187;-44
2020/12/07 04:32:08;;;;;;;3.95;3.65;;;;;;;;;;5092328;28;20296;-44
2020/12/07 04:34:34;;;;;;;4.28;3.90;;;;;;;;;;5090715;28;20237;-44
2020/12/07 04:37:00;;;;;;;4.00;3.60;;;;;;;;;;5107786;28;20591;-44
2020/12/07 04:39:26;;;;;;;4.15;3.75;;;;;;;;;;5095260;28;20190;-44
2020/12/07 04:41:52;;;;;;;4.25;3.85;;;;;;;;;;5096834;28;20273;-44
2020/12/07 04:44:18;;;;;;;4.20;3.80;;;;;;;;;;5092122;28;20489;-44
2020/12/07 04:46:45;;;;;;;4.15;3.80;;;;;;;;;;5081977;28;20179;-44
2020/12/07 04:49:12;;;;;;;4.13;3.67;;;;;;;;;;5096232;28;20261;-44
2020/12/07 04:51:39;;;;;;;4.35;3.95;;;;;;;;;;5096467;28;20196;-44
2020/12/07 04:54:05;;;;;;;4.13;3.80;;;;;;;;;;5086582;28;20178;-44
2020/12/07 04:56:32;;;;;;;4.35;3.95;;;;;;;;;;5083412;28;20182;-44
2020/12/07 04:58:58;;;;;;;4.15;3.78;;;;;;;;;;5093940;28;20186;-44
2020/12/07 05:01:24;;;;;;;4.07;3.67;;;;;;;;;;5096380;28;20194;-44
2020/12/07 05:03:50;;;;;;;3.80;3.50;;;;;;;;;;5080801;28;20609;-44
2020/12/07 05:06:19;;;;;;;3.85;3.55;;;;;;;;;;5080630;28;20193;-44
2020/12/07 05:08:45;;;;;;;3.95;3.65;;;;;;;;;;5090135;28;20174;-44
2020/12/07 05:11:11;;;;;;;4.28;3.88;;;;;;;;;;5086218;28;20174;-44
2020/12/07 05:13:44;;;;;;;4.28;3.88;;;;;;;;;;5081426;28;20461;-44
2020/12/07 05:16:11;;;;;;;4.75;4.35;;;;;;;;;;5087937;28;21011;-51
2020/12/07 05:18:39;;;;;;;6.30;4.40;;;;;;;;;;5096512;28;20212;-51
2020/12/07 05:21:05;;;;;;;5.47;4.28;;;;;;;;;;5095499;28;20243;-51
2020/12/07 05:23:35;;;;;;;8.52;3.92;;;;;;;;;;5086905;28;20205;-51
2020/12/07 05:26:02;;;;;;;5.47;4.47;;;;;;;;;;5079696;28;20257;-51
2020/12/07 05:28:34;;;;;;;8.15;4.55;;;;;;;;;;5078130;28;20183;-51
2020/12/07 05:31:00;;;;;;;6.68;4.82;;;;;;;;;;5086732;28;20173;-51
2020/12/07 05:33:26;;;;;;;7.85;4.85;;;;;;;;;;5098148;28;20457;-51
2020/12/07 05:35:53;;;;;;;5.43;4.75;;;;;;;;;;5100093;28;20570;-51
2020/12/07 05:38:19;;;;;;;5.68;4.53;;;;;;;;;;5089509;28;20211;-51
2020/12/07 05:40:45;;;;;;;7.00;4.78;;;;;;;;;;5091006;28;20187;-51
2020/12/07 05:43:14;;;;;;;5.85;4.75;;;;;;;;;;5086360;28;20536;-51
2020/12/07 05:45:42;;;;;;;6.40;4.70;;;;;;;;;;5083995;28;20580;-51
2020/12/07 05:48:10;;;;;;;6.68;4.63;;;;;;;;;;5087019;28;20178;-51
2020/12/07 05:50:41;;;;;;;5.43;4.72;;;;;;;;;;5077236;28;20266;-51
2020/12/07 05:53:07;;;;;;;6.45;4.60;;;;;;;;;;5093228;28;20265;-51
2020/12/07 05:55:33;;;;;;;5.85;4.68;;;;;;;;;;5077355;28;20510;-51
2020/12/07 05:58:03;;;;;;;7.05;4.90;;;;;;;;;;5093176;28;20173;-51
2020/12/07 06:00:30;;;;;;;5.07;4.50;;;;;;;;;;5079231;28;20175;-51
2020/12/07 06:02:56;;;;;;;5.57;4.03;;;;;;;;;;5088388;28;20194;-51
2020/12/07 06:05:23;;;;;;;5.00;4.30;;;;;;;;;;5088182;28;20181;-51
2020/12/07 06:07:55;;;;;;;5.70;4.80;;;;;;;;;;5077019;28;20320;-51
2020/12/07 06:10:22;;;;;;;5.38;4.05;;;;;;;;;;5085014;28;20177;-51
2020/12/07 06:12:50;;;;;;;4.55;4.15;;;;;;;;;;5096299;28;20178;-51
2020/12/07 06:15:19;;;;;;;6.78;4.10;;;;;;;;;;5088897;28;20170;-51
2020/12/07 06:17:49;;;;;;;6.00;4.50;;;;;;;;;;5076874;28;20257;-51
2020/12/07 06:20:32;;;;;;;7.05;4.38;;;;;;;;;;5076870;28;20290;-51
2020/12/07 06:23:00;;;;;;;5.47;4.10;;;;;;;;;;5093252;28;20267;-51
2020/12/07 06:25:30;;;;;;;4.57;4.00;;;;;;;;;;5088177;28;20179;-51
2020/12/07 06:28:05;;;;;;;4.68;3.72;;;;;;;;;;5081807;28;20261;-51
2020/12/07 06:30:38;;;;;;;4.40;3.85;;;;;;;;;;5084781;28;20174;-51
2020/12/07 06:33:05;;;;;;;5.63;4.13;;;;;;;;;;5086085;28;20183;-51
2020/12/07 06:35:31;;;;;;;4.57;3.65;;;;;;;;;;5089055;28;20183;-51
2020/12/07 06:38:01;;;;;;;4.03;3.60;;;;;;;;;;5078899;28;20273;-51
2020/12/07 06:40:29;;;;;;;5.63;3.67;;;;;;;;;;5079745;28;20451;-51
2020/12/07 06:42:56;;;;;;;4.18;3.78;;;;;;;;;;5087435;28;20194;-51
2020/12/07 06:45:28;;;;;;;4.03;3.63;;;;;;;;;;5082509;28;20227;-51
2020/12/07 06:47:54;;;;;;;4.30;3.47;;;;;;;;;;5096042;28;20260;-51
2020/12/07 06:50:22;;;;;;;4.50;3.55;;;;;;;;;;5085437;28;20265;-51
2020/12/07 06:52:49;;;;;;;3.83;3.28;;;;;;;;;;5081534;28;20174;-51
2020/12/07 06:55:17;;;;;;;3.88;3.50;;;;;;;;;;5082769;28;20197;-51
2020/12/07 06:57:47;;;;;;;3.50;3.20;;;;;;;;;;5086565;28;20628;-51
2020/12/07 07:00:21;;;;;;;3.50;3.20;;;;;;;;;;5076493;28;20175;-51
2020/12/07 07:02:50;;;;;;;3.53;3.22;;;;;;;;;;5095705;28;20209;-51
2020/12/07 07:05:17;;;;;;;4.13;3.60;;;;;;;;;;5095465;28;20257;-51
2020/12/07 07:07:43;;;;;;;3.90;3.50;;;;;;;;;;5079804;28;20629;-51
2020/12/07 07:10:10;;;;;;;5.07;3.70;;;;;;;;;;5090014;28;20465;-51
2020/12/07 07:12:37;;;;;;;4.03;3.47;;;;;;;;;;5090734;28;20182;-51
2020/12/07 07:15:04;;;;;;;4.13;3.60;;;;;;;;;;5078349;28;20173;-51
2020/12/07 07:17:30;;;;;;;3.58;3.25;;;;;;;;;;5090477;28;20300;-51
2020/12/07 07:19:57;;;;;;;3.90;3.60;;;;;;;;;;5076358;28;20181;-51
2020/12/07 07:22:23;;;;;;;3.67;3.38;;;;;;;;;;5087269;28;20213;-51
2020/12/07 07:28:07;;;;;;;3.88;3.25;;;;;;;;;;5074396;28;20257;-50
2020/12/07 07:30:33;;;;;;;4.13;3.72;;;;;;;;;;5099502;28;20169;-50
2020/12/07 07:32:59;;;;;;;3.42;3.13;;;;;;;;;;5092189;28;20175;-50
2020/12/07 07:35:27;;;;;;;5.57;3.30;;;;;;;;;;5101878;28;20590;-50
2020/12/07 07:37:53;;;;;;;3.33;3.03;;;;;;;;;;5097476;28;20239;-51
2020/12/07 07:40:23;;;;;;;3.53;3.10;;;;;;;;;;5099257;28;20623;-50
2020/12/07 07:42:49;;;;;;;3.45;3.15;;;;;;;;;;5092131;28;20217;-50
2020/12/07 07:45:19;;;;;;;3.25;2.95;;;;;;;;;;5094247;28;20253;-51
2020/12/07 07:47:55;;;;;;;4.10;3.33;;;;;;;;;;5090658;28;20236;-51
2020/12/07 08:17:48;;;;;;;3.22;2.92;;;;;;;;;;5093099;28;20272;-50
2020/12/07 08:20:14;;;;;;;3.33;3.03;;;;;;;;;;5095308;28;20181;-50
2020/12/07 08:22:40;;;;;;;3.75;3.35;;;;;;;;;;5088334;28;20248;-50
2020/12/07 08:25:06;;;;;;;2.85;2.65;;;;;;;;;;5079940;28;20551;-50
2020/12/07 08:27:33;;;;;;;2.63;2.42;;;;;;;;;;5095797;28;20177;-50
2020/12/07 08:30:00;;;;;;;3.20;2.90;;;;;;;;;;5097460;28;20549;-50
2020/12/07 08:32:26;;;;;;;3.10;2.80;;;;;;;;;;5095953;28;20231;-50
2020/12/07 08:34:52;;;;;;;3.08;2.78;;;;;;;;;;5077443;28;20187;-50
2020/12/07 08:37:18;;;;;;;3.05;2.78;;;;;;;;;;5103420;28;20626;-51
2020/12/07 08:39:44;;;;;;;2.90;2.67;;;;;;;;;;5083321;28;20174;-51
2020/12/07 08:42:10;;;;;;;3.30;3.00;;;;;;;;;;5096023;28;20208;-51
2020/12/07 08:44:37;;;;;;;2.90;2.58;;;;;;;;;;5085100;28;20209;-51
2020/12/07 08:47:06;;;;;;;2.97;2.67;;;;;;;;;;5090236;28;20197;-51
2020/12/07 08:49:32;;;;;;;3.22;2.92;;;;;;;;;;5097174;28;20260;-51
2020/12/07 08:51:58;;;;;;;2.75;2.55;;;;;;;;;;5097626;28;20613;-50
2020/12/07 08:54:24;;;;;;;3.30;3.00;;;;;;;;;;5092691;28;20174;-50
2020/12/07 08:56:50;;;;;;;3.35;3.05;;;;;;;;;;5097749;28;20264;-51
2020/12/07 08:59:17;;;;;;;2.80;2.50;;;;;;;;;;5099491;28;20174;-51
2020/12/07 09:01:42;;;;;;;3.10;2.60;;;;;;;;;;5097610;28;20448;-51
2020/12/07 09:04:11;;;;;;;2.80;2.60;;;;;;;;;;5084260;28;20194;-51
2020/12/07 09:06:39;;;;;;;2.85;2.55;;;;;;;;;;5079429;28;20163;-51
2020/12/07 09:09:05;;;;;;;3.05;2.78;;;;;;;;;;5083300;28;20177;-50
2020/12/07 09:11:32;;;;;;;2.50;2.33;;;;;;;;;;5097846;28;20178;-51
2020/12/07 09:13:58;;;;;;;2.47;2.28;;;;;;;;;;5082096;28;20179;-51
2020/12/07 09:16:24;;;;;;;2.75;2.55;;;;;;;;;;5091876;28;20182;-51
2020/12/07 09:18:50;;;;;;;3.00;2.70;;;;;;;;;;5088682;28;20189;-51
2020/12/07 09:21:16;;;;;;;3.05;2.55;;;;;;;;;;5086703;28;20186;-51
2020/12/07 09:23:42;;;;;;;2.75;2.55;;;;;;;;;;5098232;28;20205;-50
2020/12/07 09:26:08;;;;;;;2.85;2.65;;;;;;;;;;5090707;28;20206;-50
2020/12/07 09:28:37;;;;;;;2.78;2.53;;;;;;;;;;5082374;28;20453;-51
2020/12/07 09:31:04;;;;;;;3.47;2.10;;;;;;;;;;5084835;28;20176;-51
2020/12/07 09:33:30;;;;;;;2.58;2.38;;;;;;;;;;5097178;28;20186;-51
2020/12/07 09:35:56;;;;;;;3.05;2.80;;;;;;;;;;5091964;28;20235;-51
2020/12/07 09:38:22;;;;;;;2.83;2.60;;;;;;;;;;5090836;28;20270;-51
2020/12/07 09:40:48;;;;;;;3.05;2.55;;;;;;;;;;5095500;28;20495;-51
2020/12/07 09:43:14;;;;;;;3.38;2.58;;;;;;;;;;5081879;28;20269;-51
2020/12/07 09:45:40;;;;;;;2.42;2.30;;;;;;;;;;5076006;28;20194;-51
2020/12/07 09:48:06;;;;;;;2.42;2.22;;;;;;;;;;5080971;28;20222;-51
2020/12/07 09:50:32;;;;;;;2.95;2.50;;;;;;;;;;5091310;28;20189;-51
2020/12/07 09:52:58;;;;;;;2.83;2.38;;;;;;;;;;5077133;28;20190;-51
2020/12/07 09:55:25;;;;;;;4.40;2.50;;;;;;;;;;5084386;28;20178;-50
2020/12/07 09:57:51;;;;;;;2.40;2.20;;;;;;;;;;5091936;28;20173;-50
2020/12/07 10:00:17;;;;;;;2.63;2.42;;;;;;;;;;5097252;28;20256;-50
2020/12/07 10:02:43;;;;;;;2.50;2.30;;;;;;;;;;5078374;28;20217;-50
2020/12/07 10:05:09;;;;;;;2.25;2.10;;;;;;;;;;5090332;28;20182;-50
2020/12/07 10:07:35;;;;;;;2.38;2.17;;;;;;;;;;5092092;28;20224;-50
2020/12/07 10:10:01;;;;;;;2.90;2.15;;;;;;;;;;5078364;28;20200;-51
2020/12/07 10:12:27;;;;;;;2.33;2.13;;;;;;;;;;5096492;28;20203;-51
2020/12/07 10:14:55;;;;;;;2.50;2.30;;;;;;;;;;5094916;28;20265;-51
2020/12/07 10:17:21;;;;;;;3.88;2.00;;;;;;;;;;5087358;28;20178;-51
2020/12/07 10:19:47;;;;;;;2.30;2.10;;;;;;;;;;5104699;28;20212;-51
2020/12/07 10:22:13;;;;;;;2.20;2.00;;;;;;;;;;5093448;28;20238;-51
2020/12/07 10:24:40;;;;;;;2.38;2.22;;;;;;;;;;5076573;28;20226;-51
2020/12/07 10:27:06;;;;;;;2.13;1.88;;;;;;;;;;5091588;28;20174;-51
2020/12/07 10:29:32;;;;;;;3.53;2.20;;;;;;;;;;5089341;28;20236;-50
2020/12/07 10:31:58;;;;;;;2.40;2.20;;;;;;;;;;5076854;28;20253;-50
2020/12/07 10:34:24;;;;;;;2.33;2.13;;;;;;;;;;5075526;28;20179;-50
2020/12/07 10:36:50;;;;;;;2.30;2.08;;;;;;;;;;5091844;28;20174;-50
2020/12/07 10:39:16;;;;;;;1.80;1.70;;;;;;;;;;5091298;28;20182;-50
2020/12/07 10:41:42;;;;;;;2.33;1.88;;;;;;;;;;5095251;28;20288;-50
2020/12/07 10:44:09;;;;;;;2.80;2.20;;;;;;;;;;5080470;28;20205;-50
2020/12/07 10:46:37;;;;;;;3.25;1.98;;;;;;;;;;5088545;28;20425;-50
2020/12/07 10:49:05;;;;;;;3.85;2.65;;;;;;;;;;5097037;28;20180;-50
2020/12/07 10:51:31;;;;;;;2.83;2.00;;;;;;;;;;5086463;28;20209;-50
2020/12/07 10:53:57;;;;;;;2.25;2.00;;;;;;;;;;5087412;28;20217;-50
2020/12/07 10:56:22;;;;;;;2.47;2.00;;;;;;;;;;5089156;28;20608;-50
2020/12/07 10:58:49;;;;;;;2.45;2.20;;;;;;;;;;5084771;28;20177;-50
2020/12/07 11:01:17;;;;;;;4.85;2.08;;;;;;;;;;5095961;28;20192;-50
2020/12/07 11:03:43;;;;;;;2.22;1.92;;;;;;;;;;5083791;28;20462;-50
2020/12/07 11:06:17;;;;;;;2.25;2.05;;;;;;;;;;5083235;28;20168;-50
2020/12/07 11:08:51;;;;;;;13.82;6.93;;;;;;;;;;5092178;28;20195;-50
2020/12/07 11:11:20;;;;;;;59.30;26.63;;;;;;;;;;5095287;28;20219;-50
2020/12/07 11:13:46;;;;;;;75.40;34.70;;;;;;;;;;5094162;28;20205;-50
2020/12/07 11:16:13;;;;;;;96.90;39.08;;;;;;;;;;5091698;28;20617;-50
2020/12/07 11:18:39;;;;;;;83.05;34.42;;;;;;;;;;5095045;28;20178;-50
2020/12/07 11:21:17;;;;;;;66.40;28.65;;;;;;;;;;5095042;28;20173;-50
2020/12/07 11:23:44;;;;;;;56.30;24.50;;;;;;;;;;5084221;28;20785;-50
2020/12/07 11:26:11;;;;;;;51.33;20.77;;;;;;;;;;5098658;28;20180;-50
2020/12/07 11:28:38;;;;;;;42.47;18.17;;;;;;;;;;5095321;28;20161;-50
2020/12/07 11:31:05;;;;;;;33.78;15.35;;;;;;;;;;5095508;28;20499;-50
2020/12/07 11:33:31;;;;;;;33.00;13.70;;;;;;;;;;5092579;28;20186;-51
2020/12/07 11:35:57;;;;;;;30.70;12.18;;;;;;;;;;5095338;28;20204;-50
2020/12/07 11:38:26;;;;;;;24.77;10.93;;;;;;;;;;5083357;28;20226;-50
2020/12/07 11:44:11;;;;;;;25.70;9.95;;;;;;;;;;5087774;28;20202;-51
2020/12/07 11:46:41;;;;;;;20.63;8.45;;;;;;;;;;5090471;28;20294;-51
2020/12/07 11:49:07;;;;;;;19.40;8.32;;;;;;;;;;5093114;28;20162;-51
2020/12/07 11:51:33;;;;;;;20.52;7.60;;;;;;;;;;5080043;28;20207;-51
2020/12/07 11:54:00;;;;;;;16.73;7.68;;;;;;;;;;5075921;28;20167;-51
2020/12/07 11:56:34;;;;;;;17.77;8.60;;;;;;;;;;5077844;28;20473;-51
2020/12/07 11:59:00;;;;;;;20.05;7.90;;;;;;;;;;5086206;28;20463;-51
2020/12/07 12:01:26;;;;;;;20.02;7.30;;;;;;;;;;5095619;28;20186;-51
2020/12/07 12:03:53;;;;;;;14.52;6.40;;;;;;;;;;5092745;28;20206;-51
2020/12/07 12:06:32;;;;;;;18.50;5.80;;;;;;;;;;5093910;28;20183;-51
2020/12/07 12:08:59;;;;;;;15.30;6.60;;;;;;;;;;5099750;28;20174;-51
2020/12/07 12:11:29;;;;;;;13.68;6.07;;;;;;;;;;5098199;28;20221;-51
2020/12/07 12:13:55;;;;;;;13.13;5.55;;;;;;;;;;5086453;28;20186;-51
2020/12/07 12:16:23;;;;;;;16.58;5.85;;;;;;;;;;5088087;28;20445;-51
2020/12/07 12:18:49;;;;;;;15.40;6.50;;;;;;;;;;5092762;28;20442;-51
2020/12/07 12:21:15;;;;;;;12.77;5.60;;;;;;;;;;5079020;28;20186;-51
2020/12/07 12:23:41;;;;;;;11.68;5.10;;;;;;;;;;5083279;28;20201;-51
2020/12/07 12:26:07;;;;;;;9.90;4.63;;;;;;;;;;5090088;28;20617;-51
2020/12/07 12:28:33;;;;;;;12.52;5.60;;;;;;;;;;5080363;28;20179;-51
2020/12/07 12:30:59;;;;;;;12.52;5.15;;;;;;;;;;5093070;28;20185;-51
2020/12/07 12:33:25;;;;;;;13.38;4.90;;;;;;;;;;5105569;28;20189;-51
2020/12/07 12:35:51;;;;;;;11.75;4.78;;;;;;;;;;5103307;28;20269;-51
2020/12/07 12:38:17;;;;;;;13.02;4.68;;;;;;;;;;5083091;28;20494;-51
2020/12/07 12:40:43;;;;;;;11.88;5.10;;;;;;;;;;5089471;28;20175;-51
2020/12/07 12:43:09;;;;;;;8.70;4.22;;;;;;;;;;5078146;28;20245;-51
2020/12/07 12:45:35;;;;;;;12.30;5.07;;;;;;;;;;5078910;28;20185;-51
2020/12/07 12:48:01;;;;;;;10.65;5.13;;;;;;;;;;5086997;28;20183;-51
2020/12/07 12:50:27;;;;;;;7.53;4.43;;;;;;;;;;5086698;28;20189;-51
2020/12/07 12:52:53;;;;;;;9.82;4.57;;;;;;;;;;5091274;28;20174;-51
2020/12/07 12:55:19;;;;;;;10.38;4.00;;;;;;;;;;5078124;28;20436;-51
2020/12/07 12:57:45;;;;;;;5.35;3.80;;;;;;;;;;5087883;28;20334;-51
2020/12/07 13:00:11;;;;;;;14.77;4.57;;;;;;;;;;5097870;28;20271;-51
2020/12/07 13:02:37;;;;;;;6.35;4.13;;;;;;;;;;5092066;28;20204;-51
2020/12/07 13:05:03;;;;;;;8.73;4.50;;;;;;;;;;5079246;28;20174;-51
2020/12/07 13:07:29;;;;;;;11.07;3.80;;;;;;;;;;5077447;28;20552;-51
2020/12/07 13:09:55;;;;;;;11.07;4.47;;;;;;;;;;5093873;28;20178;-51
2020/12/07 13:12:21;;;;;;;7.60;3.97;;;;;;;;;;5095845;28;20186;-51
2020/12/07 13:14:47;;;;;;;7.80;3.80;;;;;;;;;;5077663;28;20182;-51
2020/12/07 13:17:22;;;;;;;8.73;4.15;;;;;;;;;;5082896;28;20205;-51
2020/12/07 13:19:48;;;;;;;9.07;3.50;;;;;;;;;;5077668;28;20169;-51
2020/12/07 13:22:41;;;;;;;6.20;3.22;;;;;;;;;;5089702;28;20210;-51
2020/12/07 13:25:10;;;;;;;8.48;3.97;;;;;;;;;;5088929;28;20181;-51
2020/12/07 13:30:03;;;;;;;11.90;3.85;;;;;;;;;;5091748;28;20233;-51
2020/12/07 13:32:29;;;;;;;6.38;3.63;;;;;;;;;;5087768;28;20174;-51
2020/12/07 13:34:55;;;;;;;6.22;3.20;;;;;;;;;;5083149;28;20270;-51
2020/12/07 13:37:21;;;;;;;8.75;3.60;;;;;;;;;;5101083;28;20245;-51
2020/12/07 13:39:48;;;;;;;6.45;3.35;;;;;;;;;;5077743;28;20601;-51
2020/12/07 13:42:14;;;;;;;6.70;3.22;;;;;;;;;;5091057;28;20580;-51
2020/12/07 13:44:40;;;;;;;5.35;3.13;;;;;;;;;;5093628;28;20201;-51
2020/12/07 13:47:09;;;;;;;4.47;3.03;;;;;;;;;;5088779;28;20174;-51
2020/12/07 13:49:35;;;;;;;8.02;3.40;;;;;;;;;;5080465;28;20170;-51
2020/12/07 13:52:01;;;;;;;7.38;3.03;;;;;;;;;;5096899;28;20253;-51
2020/12/07 13:54:27;;;;;;;5.70;2.90;;;;;;;;;;5096574;28;20561;-51
2020/12/07 13:56:54;;;;;;;6.78;3.35;;;;;;;;;;5097029;28;20197;-51
2020/12/07 13:59:20;;;;;;;6.47;3.20;;;;;;;;;;5077593;28;20205;-51
2020/12/07 14:01:46;;;;;;;8.40;4.03;;;;;;;;;;5078277;28;20167;-51
2020/12/07 14:04:28;;;;;;;6.50;3.20;;;;;;;;;;5096436;28;20209;-51
2020/12/07 14:06:54;;;;;;;7.10;3.30;;;;;;;;;;5079478;28;20244;-51
2020/12/07 14:09:20;;;;;;;5.57;2.78;;;;;;;;;;5097479;28;20213;-51
2020/12/07 14:11:47;;;;;;;5.97;3.15;;;;;;;;;;5094237;28;20188;-51
2020/12/07 14:14:13;;;;;;;5.82;3.17;;;;;;;;;;5095200;28;20209;-51
2020/12/07 14:16:39;;;;;;;6.13;3.17;;;;;;;;;;5083875;28;20178;-51
2020/12/07 14:24:18;;;;;;;5.22;2.58;;;;;;;;;;5102030;28;20193;-51
2020/12/07 14:40:13;;;;;;;7.07;2.63;;;;;;;;;;5086805;28;20262;-44
2020/12/07 14:42:39;;;;;;;5.60;3.15;;;;;;;;;;5088859;28;20197;-51
2020/12/07 14:45:07;;;;;;;4.72;2.83;;;;;;;;;;5074535;28;20183;-51
2020/12/07 14:47:38;;;;;;;8.48;2.85;;;;;;;;;;5081546;28;20175;-51
2020/12/07 14:50:49;;;;;;;6.40;2.63;;;;;;;;;;5084861;28;20181;-51
2020/12/07 14:52:54;;;;;;;5.57;2.97;;;;;;;;;;5084239;28;20716;-51
2020/12/07 14:55:35;;;;;;;7.70;4.55;;;;;;;;;;5075711;28;20178;-51
2020/12/07 15:05:52;;;;;;;4.72;2.83;;;;;;;;;;5088747;28;20273;-51
2020/12/07 15:16:14;;;;;;;4.15;3.03;;;;;;;;;;5092734;28;20240;-51
2020/12/07 15:18:40;;;;;;;9.10;3.05;;;;;;;;;;5096456;28;20166;-51
2020/12/07 15:21:06;;;;;;;6.00;2.78;;;;;;;;;;5096179;28;20249;-51
2020/12/07 15:23:33;;;;;;;4.53;2.63;;;;;;;;;;5092881;28;20205;-51
2020/12/07 15:25:59;;;;;;;6.68;3.00;;;;;;;;;;5075697;28;20455;-51
2020/12/07 15:28:25;;;;;;;7.13;2.53;;;;;;;;;;5089239;28;20178;-51
2020/12/07 15:30:51;;;;;;;4.63;2.92;;;;;;;;;;5096552;28;20185;-52
2020/12/07 15:33:17;;;;;;;3.65;2.40;;;;;;;;;;5084244;28;20170;-52
2020/12/07 15:35:43;;;;;;;4.38;2.50;;;;;;;;;;5086234;28;20169;-52
2020/12/07 15:38:09;;;;;;;4.38;2.75;;;;;;;;;;5100772;28;20559;-52
2020/12/07 15:40:35;;;;;;;4.25;2.30;;;;;;;;;;5095891;28;20178;-52
2020/12/07 15:43:01;;;;;;;4.53;2.60;;;;;;;;;;5095928;28;20630;-52
2020/12/07 15:45:30;;;;;;;5.63;2.40;;;;;;;;;;5081184;28;20474;-52
2020/12/07 15:47:56;;;;;;;6.35;2.50;;;;;;;;;;5093827;28;20184;-52
2020/12/07 15:50:22;;;;;;;6.95;2.42;;;;;;;;;;5099606;28;20256;-52